Archival Weather

Aeroparque Jorge Newbery

Buenos Aires, Argentina (SABE)

Report from: Thursday, September 21, 2023 8:00 AM -03
Current time: Friday, July 19, 2024 12:40 AM -03

Current weather – Weather history – Daily summaries
Weather forecast

Present weatherLight drizzle, mist
Temperature17.0°C (62.6°F)
Dew point17.0°C (62.6°F)
Winds 2 kts (1 m/s, 2.3 mph) Vrb
Winds variableWinds variable
Visibility1.6 mi. (2.5 km)
Clouds Ceiling: Overcast 500 ft. (152 m)
Altimeter29.83 in.Hg (1010 mB)
Relative humidity100 %
Density altitude611 ft. (186 m)
Remarks Corrected report
No significant changes expected in the next two hours
Flight conditions Instrument Meteorological Conditions
Raw dataCOR SABE 211100Z VRB02KT 2500 -DZ BR OVC005 17/17 Q1010 NOSIG RMK PP999
An error has occurred. This application may no longer respond until reloaded. Reload 🗙